createdAt,value
2023-04-24T00:01:09.743Z,11.60
2023-04-24T00:03:36.760Z,11.60
2023-04-24T00:06:03.771Z,11.50
2023-04-24T00:08:30.757Z,11.50
2023-04-24T00:10:58.077Z,11.50
2023-04-24T00:13:24.995Z,11.50
2023-04-24T00:15:51.833Z,11.50
2023-04-24T00:18:18.779Z,11.50
2023-04-24T00:20:45.891Z,11.50
2023-04-24T00:23:12.671Z,11.50
2023-04-24T00:25:40.995Z,11.40
2023-04-24T00:28:07.734Z,11.40
2023-04-24T00:30:34.494Z,11.40
2023-04-24T00:33:01.264Z,11.40
2023-04-24T00:35:28.034Z,11.40
2023-04-24T00:37:54.813Z,11.40
2023-04-24T00:40:21.679Z,11.40
2023-04-24T00:42:48.557Z,11.40
2023-04-24T00:45:15.758Z,11.40
2023-04-24T00:47:43.163Z,11.40
2023-04-24T00:50:10.293Z,11.40
2023-04-24T00:52:38.143Z,11.40
2023-04-24T00:55:05.290Z,11.40
2023-04-24T00:57:32.170Z,11.50
2023-04-24T00:59:59.208Z,11.50
2023-04-24T01:02:27.214Z,11.50
2023-04-24T01:04:54.234Z,11.50
2023-04-24T01:07:22.055Z,11.50
2023-04-24T01:09:52.087Z,11.50
2023-04-24T01:12:19.638Z,11.60
2023-04-24T01:14:46.801Z,11.60
2023-04-24T01:17:13.694Z,11.60
2023-04-24T01:19:41.374Z,11.60
2023-04-24T01:22:12.796Z,11.70
2023-04-24T01:24:39.935Z,11.70
2023-04-24T01:27:06.844Z,11.70
2023-04-24T01:29:34.629Z,11.70
2023-04-24T01:32:01.475Z,11.80
2023-04-24T01:34:28.507Z,11.80
2023-04-24T01:36:55.412Z,11.80
2023-04-24T01:39:24.120Z,11.80
2023-04-24T01:41:51.435Z,11.80
2023-04-24T01:44:18.891Z,11.80
2023-04-24T01:46:45.946Z,11.80
2023-04-24T01:49:12.858Z,11.80
2023-04-24T01:51:39.639Z,11.70
2023-04-24T01:54:07.032Z,11.70
2023-04-24T01:56:41.420Z,11.70
2023-04-24T01:59:10.093Z,11.70
2023-04-24T02:01:37.420Z,11.60
2023-04-24T02:04:05.776Z,11.60
2023-04-24T02:06:33.320Z,11.60
2023-04-24T02:09:00.914Z,11.50
2023-04-24T02:11:27.784Z,11.60
2023-04-24T02:13:54.816Z,11.60
2023-04-24T02:16:21.682Z,11.50
2023-04-24T02:18:48.430Z,11.50
2023-04-24T02:21:15.527Z,11.50
2023-04-24T02:23:42.302Z,11.50
2023-04-24T02:26:09.446Z,11.50
2023-04-24T02:28:36.123Z,11.50
2023-04-24T02:31:03.107Z,11.40
2023-04-24T02:33:29.839Z,11.40
2023-04-24T02:35:56.553Z,11.40
2023-04-24T02:38:23.315Z,11.40
2023-04-24T02:40:50.138Z,11.40
2023-04-24T02:43:16.876Z,11.40
2023-04-24T02:45:43.694Z,11.40
2023-04-24T02:48:10.518Z,11.40
2023-04-24T02:50:37.240Z,11.50
2023-04-24T02:53:04.155Z,11.50
2023-04-24T02:55:31.284Z,11.50
2023-04-24T02:57:58.021Z,11.50
2023-04-24T03:00:24.847Z,11.50
2023-04-24T03:02:51.736Z,11.50
2023-04-24T03:05:18.672Z,11.60
2023-04-24T03:07:46.524Z,11.50
2023-04-24T03:10:13.291Z,11.50
2023-04-24T03:12:40.260Z,11.50
2023-04-24T03:15:07.774Z,11.50
2023-04-24T03:17:34.489Z,11.60
2023-04-24T03:20:01.305Z,11.60
2023-04-24T03:22:28.075Z,11.60
2023-04-24T03:24:55.881Z,11.70
2023-04-24T03:27:22.646Z,11.70
2023-04-24T03:29:49.420Z,11.80
2023-04-24T03:32:16.115Z,11.80
2023-04-24T03:34:42.809Z,11.80
2023-04-24T03:37:09.563Z,11.80
2023-04-24T03:39:36.292Z,11.80
2023-04-24T03:42:03.441Z,11.80
2023-04-24T03:44:30.150Z,11.80
2023-04-24T03:46:56.901Z,11.90
2023-04-24T03:49:23.666Z,11.80
2023-04-24T03:51:50.325Z,11.90
2023-04-24T03:54:17.118Z,11.80
2023-04-24T03:56:43.793Z,11.80
2023-04-24T03:59:10.823Z,11.90
2023-04-24T04:01:38.202Z,11.90
2023-04-24T04:04:05.677Z,11.90
2023-04-24T04:06:32.776Z,11.80
2023-04-24T04:09:00.684Z,11.90
2023-04-24T04:11:27.536Z,11.90
2023-04-24T04:13:54.224Z,12.00
2023-04-24T04:16:21.057Z,12.00
2023-04-24T04:18:47.879Z,12.00
2023-04-24T04:21:14.628Z,12.00
2023-04-24T04:23:41.335Z,12.00
2023-04-24T04:26:08.970Z,12.00
2023-04-24T04:28:35.971Z,12.00
2023-04-24T04:31:02.932Z,12.00
2023-04-24T04:33:29.636Z,12.00
2023-04-24T04:35:59.642Z,12.00
2023-04-24T04:38:30.896Z,12.10
2023-04-24T04:40:58.016Z,12.10
2023-04-24T04:43:25.370Z,12.10
2023-04-24T04:45:53.452Z,12.10
2023-04-24T04:48:20.289Z,12.10
2023-04-24T04:50:48.148Z,12.20
2023-04-24T04:53:14.870Z,12.30
2023-04-24T04:55:41.621Z,12.30
2023-04-24T04:58:08.350Z,12.40
2023-04-24T05:00:38.433Z,12.30
2023-04-24T05:03:19.380Z,12.30
2023-04-24T05:05:47.695Z,12.40
2023-04-24T05:08:25.778Z,12.40
2023-04-24T05:10:54.427Z,12.40
2023-04-24T05:13:28.151Z,12.50
2023-04-24T05:15:59.342Z,12.50
2023-04-24T05:18:26.083Z,12.50
2023-04-24T05:20:52.889Z,12.60
2023-04-24T05:23:19.604Z,12.60
2023-04-24T05:25:47.210Z,12.70
2023-04-24T05:28:14.189Z,12.70
2023-04-24T05:30:41.126Z,12.80
2023-04-24T05:33:07.941Z,12.80
2023-04-24T05:35:35.002Z,12.80
2023-04-24T05:38:02.249Z,12.90
2023-04-24T05:40:28.951Z,13.00
2023-04-24T05:42:55.820Z,13.00
2023-04-24T05:45:22.581Z,13.10
2023-04-24T05:47:49.301Z,13.10
2023-04-24T05:50:16.074Z,13.00
2023-04-24T05:52:42.789Z,13.00
2023-04-24T05:55:09.635Z,13.00
2023-04-24T05:57:36.379Z,13.00
2023-04-24T06:00:04.904Z,13.10
2023-04-24T06:02:33.700Z,13.20
2023-04-24T06:05:01.088Z,13.20
2023-04-24T06:07:28.006Z,13.30
2023-04-24T06:09:54.670Z,13.40
2023-04-24T06:12:21.509Z,13.40
2023-04-24T06:14:48.209Z,13.50
2023-04-24T06:17:15.541Z,13.50
2023-04-24T06:19:42.535Z,13.40
2023-04-24T06:22:11.008Z,13.50
2023-04-24T06:24:37.940Z,13.50
2023-04-24T06:27:04.724Z,13.60
2023-04-24T06:29:31.460Z,13.70
2023-04-24T06:31:58.202Z,13.70
2023-04-24T06:34:24.966Z,13.90
2023-04-24T06:36:51.868Z,14.10
2023-04-24T06:39:18.592Z,14.20
2023-04-24T06:41:45.450Z,14.30
2023-04-24T06:44:12.216Z,14.40
2023-04-24T06:46:40.406Z,14.40
2023-04-24T06:49:08.566Z,14.50
2023-04-24T06:51:35.421Z,14.50
2023-04-24T06:54:02.824Z,14.60
2023-04-24T06:56:30.457Z,14.60
2023-04-24T06:58:57.423Z,14.70
2023-04-24T07:01:24.316Z,14.80
2023-04-24T07:03:51.236Z,14.80
2023-04-24T07:06:22.333Z,15.00
2023-04-24T07:08:49.308Z,15.10
2023-04-24T07:11:16.042Z,15.20
2023-04-24T07:13:42.983Z,15.40
2023-04-24T07:16:10.680Z,15.40
2023-04-24T07:18:38.299Z,15.50
2023-04-24T07:21:05.108Z,15.50
2023-04-24T07:23:32.299Z,15.50
2023-04-24T07:25:59.156Z,15.60
2023-04-24T07:28:26.354Z,15.60
2023-04-24T07:30:54.977Z,15.60
2023-04-24T07:33:22.105Z,15.40
2023-04-24T07:35:49.057Z,15.50
2023-04-24T07:38:15.835Z,15.50
2023-04-24T07:40:43.088Z,15.50
2023-04-24T07:43:09.804Z,15.60
2023-04-24T07:45:38.420Z,15.60
2023-04-24T07:48:05.514Z,15.70
2023-04-24T07:50:32.643Z,15.70
2023-04-24T07:52:59.406Z,15.70
2023-04-24T07:55:28.051Z,15.80
2023-04-24T07:57:55.270Z,16.00
2023-04-24T08:00:22.127Z,15.90
2023-04-24T08:02:49.171Z,16.00
2023-04-24T08:05:16.279Z,16.20
2023-04-24T08:07:47.113Z,16.30
2023-04-24T08:10:14.501Z,16.40
2023-04-24T08:12:41.691Z,16.40
2023-04-24T08:15:08.985Z,16.40
2023-04-24T08:17:36.656Z,16.50
2023-04-24T08:20:06.133Z,16.60
2023-04-24T08:22:32.977Z,16.60
2023-04-24T08:25:01.155Z,16.60
2023-04-24T08:27:28.567Z,16.80
2023-04-24T08:29:55.785Z,16.90
2023-04-24T08:32:22.648Z,17.20
2023-04-24T08:34:49.931Z,17.40
2023-04-24T08:37:17.246Z,17.30
2023-04-24T08:39:44.467Z,17.30
2023-04-24T08:42:13.956Z,17.30
2023-04-24T08:44:40.954Z,17.60
2023-04-24T08:47:09.197Z,17.60
2023-04-24T08:49:37.850Z,17.40
2023-04-24T08:52:06.084Z,17.60
2023-04-24T08:54:35.520Z,17.50
2023-04-24T08:57:04.485Z,17.60
2023-04-24T08:59:32.167Z,17.50
2023-04-24T09:01:59.276Z,17.30
2023-04-24T09:04:27.213Z,17.30
2023-04-24T09:06:59.279Z,17.40
2023-04-24T09:09:26.468Z,17.50
2023-04-24T09:11:56.475Z,17.10
2023-04-24T09:14:24.679Z,17.20
2023-04-24T09:16:52.421Z,17.40
2023-04-24T09:19:19.251Z,17.40
2023-04-24T09:21:49.185Z,17.40
2023-04-24T09:24:25.832Z,17.40
2023-04-24T09:27:00.136Z,17.40
2023-04-24T09:29:27.009Z,17.30
2023-04-24T09:31:53.874Z,17.30
2023-04-24T09:34:24.913Z,17.30
2023-04-24T09:36:52.772Z,17.20
2023-04-24T09:39:22.922Z,17.20
2023-04-24T09:41:59.655Z,17.30
2023-04-24T09:44:27.970Z,17.30
2023-04-24T09:46:59.078Z,17.50
2023-04-24T09:49:37.749Z,17.40
2023-04-24T09:52:09.744Z,17.40
2023-04-24T09:54:37.863Z,17.30
2023-04-24T09:57:04.926Z,17.40
2023-04-24T09:59:32.105Z,17.50
2023-04-24T10:02:00.237Z,17.60
2023-04-24T10:04:29.418Z,17.50
2023-04-24T10:06:57.604Z,17.50
2023-04-24T10:09:26.880Z,17.70
2023-04-24T10:11:55.580Z,17.80
2023-04-24T10:14:24.844Z,17.60
2023-04-24T10:16:54.588Z,17.60
2023-04-24T10:19:21.414Z,17.60
2023-04-24T10:21:48.610Z,17.40
2023-04-24T10:24:21.504Z,17.50
2023-04-24T10:26:51.326Z,17.40
2023-04-24T10:29:22.448Z,17.30
2023-04-24T10:31:49.316Z,17.30
2023-04-24T10:34:17.975Z,17.10
2023-04-24T10:36:50.046Z,17.10
2023-04-24T10:39:18.586Z,17.00
2023-04-24T10:41:45.830Z,16.90
2023-04-24T10:44:14.465Z,16.70
2023-04-24T10:46:46.071Z,16.70
2023-04-24T10:49:12.804Z,16.80
2023-04-24T10:51:50.982Z,16.90
2023-04-24T10:54:46.498Z,16.90
2023-04-24T10:57:25.540Z,17.10
2023-04-24T11:00:13.348Z,17.60
2023-04-24T11:02:44.606Z,18.00
2023-04-24T11:05:12.033Z,18.10
2023-04-24T11:08:17.678Z,18.20
2023-04-24T11:10:48.152Z,18.10
2023-04-24T11:13:22.129Z,17.90
2023-04-24T11:16:22.707Z,17.90
2023-04-24T11:19:00.610Z,18.00
2023-04-24T11:21:42.882Z,17.90
2023-04-24T11:24:27.508Z,17.50
2023-04-24T11:27:17.749Z,17.10
2023-04-24T11:29:58.449Z,16.70
2023-04-24T11:32:27.053Z,16.70
2023-04-24T11:35:02.241Z,16.70
2023-04-24T11:37:38.685Z,16.80
2023-04-24T11:40:11.481Z,17.20
2023-04-24T11:42:47.029Z,17.20
2023-04-24T11:45:25.478Z,17.40
2023-04-24T11:47:52.356Z,17.50
2023-04-24T11:50:23.891Z,17.80
2023-04-24T11:52:51.428Z,17.80
2023-04-24T11:55:18.518Z,17.80
2023-04-24T11:57:49.792Z,17.80
2023-04-24T12:00:23.760Z,17.80
2023-04-24T12:02:51.440Z,18.20
2023-04-24T12:05:25.903Z,18.50
2023-04-24T12:07:54.432Z,18.80
2023-04-24T12:10:22.954Z,19.00
2023-04-24T12:12:52.167Z,19.10
2023-04-24T12:15:21.121Z,19.20
2023-04-24T12:17:48.565Z,19.20
2023-04-24T12:20:15.804Z,19.00
2023-04-24T12:22:51.216Z,18.60
2023-04-24T12:25:19.741Z,18.70
2023-04-24T12:27:48.013Z,18.50
2023-04-24T12:30:17.094Z,18.30
2023-04-24T12:32:48.733Z,18.40
2023-04-24T12:35:21.833Z,18.50
2023-04-24T12:37:48.632Z,18.50
2023-04-24T12:40:16.555Z,18.50
2023-04-24T12:42:51.260Z,18.60
2023-04-24T12:45:19.614Z,18.50
2023-04-24T12:47:47.498Z,18.40
2023-04-24T12:50:16.759Z,18.40
2023-04-24T12:52:44.606Z,18.40
2023-04-24T12:55:12.881Z,18.50
2023-04-24T12:57:40.855Z,18.80
2023-04-24T13:00:09.470Z,18.90
2023-04-24T13:02:37.506Z,18.80
2023-04-24T13:05:04.980Z,18.60
2023-04-24T13:07:31.662Z,18.70
2023-04-24T13:10:01.294Z,18.80
2023-04-24T13:12:28.149Z,18.90
2023-04-24T13:14:55.248Z,19.10
2023-04-24T13:17:22.511Z,19.20
2023-04-24T13:19:51.916Z,19.20
2023-04-24T13:22:22.066Z,19.00
2023-04-24T13:24:51.824Z,18.80
2023-04-24T13:27:19.190Z,19.00
2023-04-24T13:29:46.468Z,18.90
2023-04-24T13:32:13.246Z,18.80
2023-04-24T13:34:40.235Z,18.50
2023-04-24T13:37:07.317Z,18.50
2023-04-24T13:39:34.405Z,18.60
2023-04-24T13:42:04.442Z,18.60
2023-04-24T13:44:31.974Z,18.70
2023-04-24T13:46:59.394Z,19.00
2023-04-24T13:49:26.551Z,19.00
2023-04-24T13:51:54.432Z,18.60
2023-04-24T13:54:21.163Z,18.30
2023-04-24T13:56:47.873Z,18.30
2023-04-24T13:59:14.540Z,18.40
2023-04-24T14:01:41.329Z,18.70
2023-04-24T14:04:08.235Z,18.70
2023-04-24T14:06:35.131Z,18.70
2023-04-24T14:09:01.839Z,18.90
2023-04-24T14:11:28.744Z,19.60
2023-04-24T14:13:57.312Z,19.60
2023-04-24T14:16:24.192Z,19.90
2023-04-24T14:18:51.229Z,20.10
2023-04-24T14:21:17.987Z,20.10
2023-04-24T14:23:45.387Z,19.80
2023-04-24T14:26:12.371Z,19.90
2023-04-24T14:28:39.344Z,20.00
2023-04-24T14:31:06.242Z,20.20
2023-04-24T14:33:33.064Z,20.60
2023-04-24T14:35:59.868Z,20.50
2023-04-24T14:38:26.632Z,20.10
2023-04-24T14:41:06.132Z,19.60
2023-04-24T14:43:36.177Z,20.00
2023-04-24T14:46:03.966Z,19.90
2023-04-24T14:48:31.377Z,19.60
2023-04-24T14:50:58.105Z,19.10
2023-04-24T14:53:24.894Z,18.50
2023-04-24T14:55:51.589Z,18.20
2023-04-24T14:58:18.298Z,18.00
2023-04-24T15:00:45.063Z,18.00
2023-04-24T15:03:11.899Z,17.90
2023-04-24T15:05:39.320Z,17.80
2023-04-24T15:08:07.199Z,17.90
2023-04-24T15:10:34.354Z,18.20
2023-04-24T15:13:01.273Z,18.60
2023-04-24T15:15:28.072Z,19.10
2023-04-24T15:17:54.859Z,19.60
2023-04-24T15:20:21.712Z,19.00
2023-04-24T15:22:48.448Z,18.60
2023-04-24T15:25:15.154Z,18.20
2023-04-24T15:27:46.089Z,17.90
2023-04-24T15:30:14.012Z,17.70
2023-04-24T15:32:40.902Z,17.50
2023-04-24T15:35:10.131Z,17.40
2023-04-24T15:37:38.889Z,17.30
2023-04-24T15:40:08.147Z,17.20
2023-04-24T15:42:35.821Z,17.20
2023-04-24T15:45:02.757Z,17.20
2023-04-24T15:47:29.598Z,17.00
2023-04-24T15:49:56.400Z,17.00
2023-04-24T15:52:23.254Z,17.00
2023-04-24T15:54:50.089Z,17.00
2023-04-24T15:57:16.941Z,16.90
2023-04-24T15:59:45.240Z,16.90
2023-04-24T16:02:20.616Z,16.80
2023-04-24T16:04:51.165Z,16.70
2023-04-24T16:07:18.466Z,16.60
2023-04-24T16:09:45.723Z,16.50
2023-04-24T16:12:12.677Z,16.40
2023-04-24T16:14:39.600Z,16.30
2023-04-24T16:17:06.736Z,16.30
2023-04-24T16:19:36.221Z,16.10
2023-04-24T16:22:04.502Z,16.20
2023-04-24T16:24:34.542Z,16.10
2023-04-24T16:27:03.209Z,16.10
2023-04-24T16:29:32.117Z,15.90
2023-04-24T16:31:59.482Z,15.90
2023-04-24T16:34:26.283Z,15.90
2023-04-24T16:36:53.438Z,15.90
2023-04-24T16:39:24.879Z,15.90
2023-04-24T16:44:26.073Z,15.80
2023-04-24T16:46:54.502Z,15.50
2023-04-24T16:49:21.304Z,15.20
2023-04-24T16:51:47.962Z,15.10
2023-04-24T16:54:14.636Z,14.80
2023-04-24T16:56:41.315Z,14.70
2023-04-24T16:59:08.562Z,14.50
2023-04-24T17:01:35.824Z,14.10
2023-04-24T17:04:02.646Z,14.10
2023-04-24T17:06:29.605Z,14.10
2023-04-24T17:08:56.311Z,14.00
2023-04-24T17:11:23.057Z,14.10
2023-04-24T17:13:49.811Z,14.00
2023-04-24T17:16:16.589Z,14.00
2023-04-24T17:18:43.447Z,14.00
2023-04-24T17:21:10.188Z,13.90
2023-04-24T17:23:37.162Z,13.50
2023-04-24T17:26:04.024Z,13.40
2023-04-24T17:28:32.414Z,13.40
2023-04-24T17:30:59.561Z,13.50
2023-04-24T17:33:30.854Z,13.50
2023-04-24T17:35:58.908Z,13.30
2023-04-24T17:38:25.721Z,13.20
2023-04-24T17:40:52.993Z,13.20
2023-04-24T17:43:20.845Z,13.20
2023-04-24T17:45:51.137Z,13.20
2023-04-24T17:48:19.514Z,13.10
2023-04-24T17:50:46.383Z,13.00
2023-04-24T17:53:13.549Z,12.80
2023-04-24T17:55:42.009Z,12.70
2023-04-24T17:58:09.087Z,12.50
2023-04-24T18:00:36.382Z,12.40
2023-04-24T18:03:04.125Z,12.40
2023-04-24T18:05:31.861Z,12.50
2023-04-24T18:07:59.319Z,12.50
2023-04-24T18:10:27.125Z,12.50
2023-04-24T18:12:54.003Z,12.40
2023-04-24T18:15:21.373Z,12.30
2023-04-24T18:17:48.489Z,12.10
2023-04-24T18:20:17.115Z,12.10
2023-04-24T18:22:44.079Z,12.10
2023-04-24T18:25:11.639Z,12.10
2023-04-24T18:27:39.742Z,12.00
2023-04-24T18:30:08.082Z,12.00
2023-04-24T18:32:35.388Z,11.90
2023-04-24T18:35:03.282Z,11.80
2023-04-24T18:37:30.156Z,11.70
2023-04-24T18:39:56.984Z,11.50
2023-04-24T18:42:23.689Z,11.50
2023-04-24T18:44:51.286Z,11.40
2023-04-24T18:47:18.065Z,11.30
2023-04-24T18:49:44.858Z,11.30
2023-04-24T18:52:11.514Z,11.20
2023-04-24T18:54:38.313Z,11.20
2023-04-24T18:57:04.995Z,11.10
2023-04-24T18:59:31.662Z,11.10
2023-04-24T19:01:58.485Z,11.00
2023-04-24T19:04:25.388Z,11.10
2023-04-24T19:06:52.184Z,10.90
2023-04-24T19:09:18.885Z,10.90
2023-04-24T19:11:45.733Z,10.80
2023-04-24T19:14:13.510Z,10.70
2023-04-24T19:16:40.439Z,10.80
2023-04-24T19:19:07.496Z,10.70
2023-04-24T19:21:34.953Z,10.60
2023-04-24T19:24:02.075Z,10.70
2023-04-24T19:26:31.246Z,10.70
2023-04-24T19:28:58.940Z,10.60
2023-04-24T19:31:26.439Z,10.60
2023-04-24T19:33:53.460Z,10.60
2023-04-24T19:36:20.275Z,10.60
2023-04-24T19:38:47.691Z,10.70
2023-04-24T19:41:14.507Z,10.70
2023-04-24T19:43:41.176Z,10.70
2023-04-24T19:46:08.080Z,10.70
2023-04-24T19:48:34.859Z,10.70
2023-04-24T19:51:02.346Z,10.60
2023-04-24T19:53:29.725Z,10.60
2023-04-24T19:55:56.828Z,10.50
2023-04-24T19:58:24.372Z,10.50
2023-04-24T20:00:51.379Z,10.40
2023-04-24T20:03:31.387Z,10.30
2023-04-24T20:05:59.859Z,10.30
2023-04-24T20:08:26.601Z,10.20
2023-04-24T20:10:54.303Z,10.20
2023-04-24T20:13:21.018Z,10.20
2023-04-24T20:15:47.807Z,10.10
2023-04-24T20:18:14.622Z,10.10
2023-04-24T20:20:41.673Z,10.10
2023-04-24T20:23:08.579Z,10.10
2023-04-24T20:25:36.161Z,10.00
2023-04-24T20:28:03.214Z,10.00
2023-04-24T20:30:31.401Z,10.10
2023-04-24T20:32:58.936Z,10.00
2023-04-24T20:35:25.737Z,10.00
2023-04-24T20:37:53.631Z,10.00
2023-04-24T20:40:20.524Z,9.90
2023-04-24T20:42:47.340Z,9.90
2023-04-24T20:45:14.125Z,9.80
2023-04-24T20:47:40.966Z,9.80
2023-04-24T20:50:08.450Z,9.80
2023-04-24T20:52:35.312Z,9.80
2023-04-24T20:55:02.192Z,9.80
2023-04-24T20:57:29.153Z,9.80
2023-04-24T20:59:55.834Z,9.70
2023-04-24T21:02:22.627Z,9.70
2023-04-24T21:04:50.530Z,9.70
2023-04-24T21:07:17.561Z,9.60
2023-04-24T21:09:44.292Z,9.60
2023-04-24T21:12:11.062Z,9.70
2023-04-24T21:14:37.719Z,9.60
2023-04-24T21:17:04.452Z,9.60
2023-04-24T21:19:31.231Z,9.60
2023-04-24T21:21:57.894Z,9.60
2023-04-24T21:24:24.694Z,9.60
2023-04-24T21:26:51.482Z,9.50
2023-04-24T21:29:18.542Z,9.60
2023-04-24T21:31:45.608Z,9.60
2023-04-24T21:34:12.669Z,9.70
2023-04-24T21:36:39.386Z,9.70
2023-04-24T21:39:06.159Z,9.70
2023-04-24T21:41:32.932Z,9.70
2023-04-24T21:43:59.646Z,9.70
2023-04-24T21:46:26.854Z,9.60
2023-04-24T21:48:53.610Z,9.60
2023-04-24T21:51:20.465Z,9.60
2023-04-24T21:53:47.515Z,9.60
2023-04-24T21:56:14.550Z,9.50
2023-04-24T21:58:41.707Z,9.50
2023-04-24T22:01:09.279Z,9.60
2023-04-24T22:03:36.087Z,9.60
2023-04-24T22:06:03.056Z,9.50
2023-04-24T22:08:29.885Z,9.40
2023-04-24T22:10:56.844Z,9.40
2023-04-24T22:13:23.541Z,9.40
2023-04-24T22:15:51.100Z,9.40
2023-04-24T22:18:18.761Z,9.40
2023-04-24T22:20:46.543Z,9.30
2023-04-24T22:23:13.475Z,9.30
2023-04-24T22:25:40.356Z,9.30
2023-04-24T22:28:07.168Z,9.20
2023-04-24T22:30:33.906Z,9.20
2023-04-24T22:33:00.748Z,9.20
2023-04-24T22:35:27.614Z,9.20
2023-04-24T22:37:58.110Z,9.20
2023-04-24T22:40:25.484Z,9.10
2023-04-24T22:42:52.712Z,9.10
2023-04-24T22:45:23.433Z,9.10
2023-04-24T22:47:51.125Z,9.10
2023-04-24T22:50:18.156Z,9.10
2023-04-24T22:52:45.803Z,9.10
2023-04-24T22:55:12.572Z,9.10
2023-04-24T22:57:39.842Z,9.10
2023-04-24T23:00:11.026Z,9.20
2023-04-24T23:02:39.978Z,9.30
2023-04-24T23:05:08.418Z,9.30
2023-04-24T23:07:36.607Z,9.30
2023-04-24T23:10:04.579Z,9.40
2023-04-24T23:12:31.617Z,9.40
2023-04-24T23:14:58.324Z,9.40
2023-04-24T23:17:25.052Z,9.50
2023-04-24T23:19:51.828Z,9.60
2023-04-24T23:22:18.569Z,9.50
2023-04-24T23:24:45.430Z,9.50
2023-04-24T23:27:12.173Z,9.50
2023-04-24T23:29:38.857Z,9.50
2023-04-24T23:32:05.920Z,9.50
2023-04-24T23:34:33.932Z,9.50
2023-04-24T23:37:01.375Z,9.50
2023-04-24T23:39:28.094Z,9.40
2023-04-24T23:41:56.357Z,9.50
2023-04-24T23:44:23.059Z,9.40
2023-04-24T23:46:49.755Z,9.40
2023-04-24T23:49:16.430Z,9.40
2023-04-24T23:51:43.417Z,9.30
2023-04-24T23:54:11.237Z,9.30
2023-04-24T23:56:37.954Z,9.20
2023-04-24T23:59:04.614Z,9.20
